This is the latest recevied weather packets stored in our database for station/object BMCB-18. If no packets are shown the sender has not sent any weather packets the latest 10 day(s).
| Time | Temp. | Humidity | Pressure | Rain* | Wind** | Luminosity | Snow |
|---|---|---|---|---|---|---|---|
| 1777765846 | 12.78° C | 99% | 1015.2 hPa | 0 mm | - | 0 W/m² | - |
| 1777761047 | 13.89° C | 98% | 1015.5 hPa | 0 mm | - | 0 W/m² | - |
| 1777759846 | 13.89° C | 98% | 1015.5 hPa | 0 mm | - | 0 W/m² | - |
| 1777758045 | 13.33° C | 98% | 1015.6 hPa | 0 mm | - | 0 W/m² | - |
| 1777755649 | 13.33° C | 98% | 1015.7 hPa | 0 mm | - | 0 W/m² | - |
| 1777749052 | 14.44° C | 93% | 1016.1 hPa | 4.06 mm | - | 0 W/m² | - |
| 1777736445 | 22.78° C | 54% | 1016.1 hPa | 0 mm | - | 106 W/m² | - |
| 1777733444 | 22.78° C | 54% | 1016.9 hPa | 0 mm | - | 250 W/m² | - |
| 1777729245 | 23.33° C | 56% | 1017.9 hPa | 0 mm | - | 412 W/m² | - |
| 1777728647 | 23.33° C | 57% | 1018.1 hPa | 0 mm | - | 762 W/m² | - |
| 1777728045 | 22.78° C | 57% | 1018.1 hPa | 0 mm | - | 660 W/m² | - |
| 1777724446 | 21.67° C | 63% | 1019.1 hPa | 0 mm | - | 512 W/m² | - |
| 1777720843 | 21.11° C | 64% | 1019.9 hPa | 0 mm | - | 440 W/m² | - |
| 1777720246 | 21.11° C | 64% | 1019.9 hPa | 0 mm | - | 556 W/m² | - |
| 1777718446 | 20.56° C | 64% | 1020.2 hPa | 0 mm | - | 616 W/m² | - |
| 1777714848 | 20° C | 67% | 1020.6 hPa | 0 mm | - | 704 W/m² | - |
| 1777705844 | 13.89° C | 77% | 1021.9 hPa | 0 mm | - | 120 W/m² | - |
| 1777701643 | 12.78° C | 77% | 1022 hPa | 0 mm | - | 116 W/m² | - |
| 1777690240 | 13.89° C | 53% | 1022.1 hPa | 0 mm | - | 0 W/m² | - |
| 1777686046 | 6.67° C | 85% | 1022.5 hPa | 0 mm | - | 0 W/m² | - |
| 1777681245 | 6.11° C | 85% | 1023 hPa | 0 mm | - | 0 W/m² | - |
| 1777680045 | 6.11° C | 84% | 1023.1 hPa | 0 mm | - | 0 W/m² | - |
| 1777677647 | 6.11° C | 84% | 1023.4 hPa | 0 mm | - | 0 W/m² | - |
| 1777676445 | 6.67° C | 82% | 1023.6 hPa | 0 mm | - | 0 W/m² | - |
| 1777672847 | 7.22° C | 79% | 1023.8 hPa | 0 mm | - | 0 W/m² | - |
* Rain latest hour (hover to see other rain measurements)
** Current wind speed in m/s (hover to see current wind gust speed)